Time;durP1;ratioP1;P1;durP2;ratioP2;P2;SDS_P1;SDS_P2;PMS_P1;PMS_P2;Temp;Humidity;BMP_temperature;BMP_pressure;BME280_temperature;BME280_humidity;BME280_pressure;Samples;Min_cycle;Max_cycle;Signal;HPM_P1;HPM_P2
2023/09/14 00:00:19;;;;;;;438.15;110.68;;;;;;;;;;4990512;28;20276;-55
2023/09/14 00:02:44;;;;;;;484.10;111.40;;;;;;;;;;4992504;28;20015;-56
2023/09/14 00:05:09;;;;;;;398.03;107.10;;;;;;;;;;5000556;28;20552;-56
2023/09/14 00:07:34;;;;;;;391.77;107.75;;;;;;;;;;4995299;28;20549;-55
2023/09/14 00:10:00;;;;;;;436.15;110.38;;;;;;;;;;4993770;28;20022;-56
2023/09/14 00:12:25;;;;;;;557.03;116.03;;;;;;;;;;5002056;28;20092;-56
2023/09/14 00:14:50;;;;;;;382.90;105.23;;;;;;;;;;4998343;28;20824;-56
2023/09/14 00:17:16;;;;;;;378.08;107.25;;;;;;;;;;4998181;28;20278;-55
2023/09/14 00:19:41;;;;;;;447.73;110.35;;;;;;;;;;4997646;28;20032;-55
2023/09/14 00:22:06;;;;;;;395.20;109.13;;;;;;;;;;4997746;28;20096;-57
2023/09/14 00:24:31;;;;;;;512.77;117.03;;;;;;;;;;4997521;28;20027;-57
2023/09/14 00:26:57;;;;;;;374.03;108.20;;;;;;;;;;4997840;28;20277;-55
2023/09/14 00:29:22;;;;;;;555.90;118.10;;;;;;;;;;4999033;28;20340;-57
2023/09/14 00:31:47;;;;;;;371.57;107.80;;;;;;;;;;4999700;28;20862;-56
2023/09/14 00:34:12;;;;;;;396.40;111.50;;;;;;;;;;5000036;28;20342;-58
2023/09/14 00:36:38;;;;;;;403.73;111.22;;;;;;;;;;4997079;28;20308;-56
2023/09/14 00:39:03;;;;;;;414.90;110.97;;;;;;;;;;4998368;28;20099;-56
2023/09/14 00:41:28;;;;;;;516.83;116.15;;;;;;;;;;4986252;28;20029;-57
2023/09/14 00:43:54;;;;;;;370.30;109.15;;;;;;;;;;4997222;28;20025;-57
2023/09/14 00:46:19;;;;;;;454.03;112.83;;;;;;;;;;4993893;28;20034;-57
2023/09/14 00:48:45;;;;;;;391.25;109.82;;;;;;;;;;4994505;28;20331;-57
2023/09/14 00:51:10;;;;;;;385.73;110.10;;;;;;;;;;4997669;28;20025;-56
2023/09/14 00:53:35;;;;;;;586.97;118.57;;;;;;;;;;4993530;28;20137;-56
2023/09/14 00:56:01;;;;;;;373.17;108.68;;;;;;;;;;4997792;28;20046;-55
2023/09/14 00:58:26;;;;;;;463.88;113.13;;;;;;;;;;4995480;28;20014;-57
2023/09/14 01:00:52;;;;;;;366.65;108.97;;;;;;;;;;4998305;28;20120;-56
2023/09/14 01:03:17;;;;;;;423.92;114.40;;;;;;;;;;4999605;28;20018;-57
2023/09/14 01:05:44;;;;;;;379.77;112.20;;;;;;;;;;4995746;28;20123;-57
2023/09/14 01:08:09;;;;;;;385.63;110.82;;;;;;;;;;4999415;28;20032;-56
2023/09/14 01:10:34;;;;;;;548.25;118.28;;;;;;;;;;4995805;28;20058;-56
2023/09/14 01:12:59;;;;;;;418.67;111.53;;;;;;;;;;4996306;28;20026;-57
2023/09/14 01:15:25;;;;;;;521.97;118.53;;;;;;;;;;4993827;28;20022;-58
2023/09/14 01:17:57;;;;;;;390.45;110.95;;;;;;;;;;4995745;28;20257;-55
2023/09/14 01:23:00;;;;;;;637.63;108.85;;;;;;;;;;5485163;22;20099;-58
2023/09/14 01:25:45;;;;;;;460.13;101.15;;;;;;;;;;4996783;28;20049;-58
2023/09/14 01:28:11;;;;;;;335.52;101.15;;;;;;;;;;4983441;28;20034;-57
2023/09/14 01:30:37;;;;;;;364.90;96.03;;;;;;;;;;4980375;28;20112;-60
2023/09/14 01:33:04;;;;;;;360.35;96.47;;;;;;;;;;4979574;28;20749;-59
2023/09/14 01:35:32;;;;;;;404.58;102.55;;;;;;;;;;4981189;28;20062;-59
2023/09/14 01:37:58;;;;;;;302.80;99.15;;;;;;;;;;4974327;28;20414;-58
2023/09/14 01:40:24;;;;;;;418.38;104.78;;;;;;;;;;4972626;28;20074;-59
2023/09/14 01:42:50;;;;;;;358.25;99.82;;;;;;;;;;4970599;28;20014;-57
2023/09/14 01:45:15;;;;;;;365.50;103.30;;;;;;;;;;4974636;28;20486;-59
2023/09/14 01:47:40;;;;;;;352.65;103.60;;;;;;;;;;4973840;28;20484;-59
2023/09/14 01:50:06;;;;;;;362.17;104.23;;;;;;;;;;4975170;28;20601;-57
2023/09/14 01:52:31;;;;;;;388.13;105.75;;;;;;;;;;4971889;28;20290;-58
2023/09/14 01:54:57;;;;;;;334.13;103.07;;;;;;;;;;4973231;28;20025;-59
2023/09/14 01:57:23;;;;;;;374.45;105.70;;;;;;;;;;4972100;28;20277;-58
2023/09/14 01:59:48;;;;;;;371.88;107.50;;;;;;;;;;4973467;28;20029;-59
2023/09/14 02:02:14;;;;;;;377.57;106.47;;;;;;;;;;4973886;28;20402;-57
2023/09/14 02:04:41;;;;;;;421.30;110.25;;;;;;;;;;4974162;28;20258;-58
2023/09/14 02:07:06;;;;;;;421.15;108.55;;;;;;;;;;4976597;28;20031;-58
2023/09/14 02:09:32;;;;;;;418.97;108.50;;;;;;;;;;4979975;28;20041;-58
2023/09/14 02:11:57;;;;;;;325.07;104.43;;;;;;;;;;4975262;28;20285;-59
2023/09/14 02:14:23;;;;;;;392.90;106.67;;;;;;;;;;4973968;28;20284;-57
2023/09/14 02:16:48;;;;;;;359.65;106.72;;;;;;;;;;4972399;28;20269;-59
2023/09/14 02:19:14;;;;;;;359.10;106.23;;;;;;;;;;4974083;28;20014;-57
2023/09/14 02:21:39;;;;;;;419.40;109.70;;;;;;;;;;4971127;28;20274;-58
2023/09/14 02:24:04;;;;;;;425.98;109.57;;;;;;;;;;4972118;28;20273;-58
2023/09/14 02:26:29;;;;;;;382.95;109.78;;;;;;;;;;4972734;28;20149;-59
2023/09/14 02:28:55;;;;;;;353.87;107.93;;;;;;;;;;4971815;28;20033;-57
2023/09/14 02:31:20;;;;;;;414.67;109.97;;;;;;;;;;4969899;28;20274;-57
2023/09/14 02:33:45;;;;;;;385.38;109.80;;;;;;;;;;4972745;28;20278;-57
2023/09/14 02:36:10;;;;;;;365.47;109.53;;;;;;;;;;4973075;28;20054;-56
2023/09/14 02:38:36;;;;;;;419.73;111.47;;;;;;;;;;4972874;28;20262;-56
2023/09/14 02:41:01;;;;;;;392.52;111.75;;;;;;;;;;4973050;28;20266;-56
2023/09/14 02:43:26;;;;;;;402.42;112.10;;;;;;;;;;4971625;28;20018;-57
2023/09/14 02:45:52;;;;;;;359.17;109.13;;;;;;;;;;4970147;28;20037;-60
2023/09/14 02:48:17;;;;;;;389.00;110.30;;;;;;;;;;4973002;28;20037;-56
2023/09/14 02:50:43;;;;;;;371.17;104.30;;;;;;;;;;4970383;28;22580;-58
2023/09/14 02:53:08;;;;;;;350.80;102.65;;;;;;;;;;4970639;28;20288;-57
2023/09/14 02:55:34;;;;;;;450.15;109.95;;;;;;;;;;4970437;28;20035;-58
2023/09/14 02:58:00;;;;;;;415.90;111.95;;;;;;;;;;4980439;28;20018;-57
2023/09/14 03:00:25;;;;;;;373.00;112.03;;;;;;;;;;4978929;28;20026;-57
2023/09/14 03:02:51;;;;;;;402.67;112.82;;;;;;;;;;4972741;28;20102;-58
2023/09/14 03:05:17;;;;;;;398.55;112.35;;;;;;;;;;4969141;28;20022;-58
2023/09/14 03:07:43;;;;;;;448.20;117.68;;;;;;;;;;4974413;28;20030;-59
2023/09/14 03:10:09;;;;;;;368.30;113.45;;;;;;;;;;4972364;28;20495;-59
2023/09/14 03:12:34;;;;;;;480.33;120.55;;;;;;;;;;4969473;28;20533;-57
2023/09/14 03:14:59;;;;;;;415.08;116.20;;;;;;;;;;4972789;28;20401;-57
2023/09/14 03:17:24;;;;;;;373.77;111.10;;;;;;;;;;4972560;28;20424;-57
2023/09/14 03:19:50;;;;;;;326.98;106.22;;;;;;;;;;4971266;28;20329;-57
2023/09/14 03:22:15;;;;;;;413.98;112.07;;;;;;;;;;4971063;28;20027;-57
2023/09/14 03:24:40;;;;;;;474.80;116.95;;;;;;;;;;4972048;28;20034;-58
2023/09/14 03:27:06;;;;;;;358.48;113.72;;;;;;;;;;4971903;28;20153;-57
2023/09/14 03:29:31;;;;;;;430.95;113.13;;;;;;;;;;4971589;28;20019;-57
2023/09/14 03:31:56;;;;;;;398.20;115.93;;;;;;;;;;4971138;28;20099;-58
2023/09/14 03:34:21;;;;;;;383.90;116.28;;;;;;;;;;4972489;28;20037;-58
2023/09/14 03:36:47;;;;;;;354.85;115.40;;;;;;;;;;4970150;28;20227;-58
2023/09/14 03:39:12;;;;;;;399.13;117.75;;;;;;;;;;4972626;28;20030;-59
2023/09/14 03:41:38;;;;;;;498.83;122.90;;;;;;;;;;4976482;28;20650;-57
2023/09/14 03:44:03;;;;;;;372.38;116.30;;;;;;;;;;4972872;28;20025;-58
2023/09/14 03:46:29;;;;;;;394.10;116.50;;;;;;;;;;4972351;28;20084;-57
2023/09/14 03:48:54;;;;;;;401.88;117.88;;;;;;;;;;4972045;28;20537;-60
2023/09/14 03:51:19;;;;;;;386.23;118.80;;;;;;;;;;4970093;28;20046;-60
2023/09/14 03:53:44;;;;;;;495.53;124.73;;;;;;;;;;4971002;28;20037;-60
2023/09/14 03:56:09;;;;;;;356.10;116.53;;;;;;;;;;4972035;28;20282;-58
2023/09/14 03:58:35;;;;;;;508.63;125.80;;;;;;;;;;4971588;28;20246;-59
2023/09/14 04:01:02;;;;;;;366.02;118.07;;;;;;;;;;4970648;28;20046;-58
2023/09/14 04:03:28;;;;;;;370.52;118.70;;;;;;;;;;4967452;28;20087;-58
2023/09/14 04:05:53;;;;;;;409.13;118.70;;;;;;;;;;4969881;28;20034;-57
2023/09/14 04:08:18;;;;;;;441.83;119.67;;;;;;;;;;4971635;28;20018;-58
2023/09/14 04:10:44;;;;;;;431.45;118.10;;;;;;;;;;4969791;28;20331;-57
2023/09/14 04:13:39;;;;;;;356.93;112.90;;;;;;;;;;4969895;28;20022;-57
2023/09/14 04:16:05;;;;;;;378.30;116.00;;;;;;;;;;4969791;28;20317;-58
2023/09/14 04:18:36;;;;;;;422.30;118.28;;;;;;;;;;4969552;28;20019;-57
2023/09/14 04:21:02;;;;;;;400.63;119.00;;;;;;;;;;4970623;28;20034;-57
2023/09/14 04:23:28;;;;;;;341.27;106.38;;;;;;;;;;4979725;28;20030;-58
2023/09/14 04:25:53;;;;;;;365.60;106.75;;;;;;;;;;4975315;28;20034;-57
2023/09/14 04:28:19;;;;;;;353.73;104.88;;;;;;;;;;4972273;28;20026;-58
2023/09/14 04:30:48;;;;;;;443.98;97.68;;;;;;;;;;4969842;28;20683;-58
2023/09/14 04:33:14;;;;;;;338.30;97.68;;;;;;;;;;4970149;28;20022;-58
2023/09/14 04:35:39;;;;;;;401.92;90.53;;;;;;;;;;4971954;28;20041;-58
2023/09/14 04:38:06;;;;;;;335.13;88.60;;;;;;;;;;4970995;28;20118;-57
2023/09/14 04:40:31;;;;;;;290.00;88.85;;;;;;;;;;4968721;28;20514;-57
2023/09/14 04:42:56;;;;;;;371.90;94.00;;;;;;;;;;4969164;28;20019;-59
2023/09/14 04:45:21;;;;;;;325.63;88.13;;;;;;;;;;4969864;28;20014;-58
2023/09/14 04:47:47;;;;;;;410.75;96.25;;;;;;;;;;4969309;28;20265;-59
2023/09/14 04:50:12;;;;;;;306.70;85.20;;;;;;;;;;4971870;28;20019;-57
2023/09/14 04:52:37;;;;;;;448.55;103.70;;;;;;;;;;4975012;28;20354;-58
2023/09/14 04:55:04;;;;;;;340.85;90.70;;;;;;;;;;4972905;28;20038;-57
2023/09/14 04:57:29;;;;;;;310.55;90.13;;;;;;;;;;4975475;28;20038;-58
2023/09/14 04:59:54;;;;;;;349.90;94.07;;;;;;;;;;4972578;28;20014;-57
2023/09/14 05:02:19;;;;;;;330.67;92.13;;;;;;;;;;4972376;28;20289;-57
2023/09/14 05:04:45;;;;;;;422.37;100.50;;;;;;;;;;4973172;28;20951;-57
2023/09/14 05:07:10;;;;;;;365.40;95.88;;;;;;;;;;4971433;28;20521;-56
2023/09/14 05:09:35;;;;;;;412.87;98.63;;;;;;;;;;4973371;28;20029;-58
2023/09/14 05:12:00;;;;;;;326.53;84.30;;;;;;;;;;4976125;28;20270;-58
2023/09/14 05:14:26;;;;;;;305.80;86.15;;;;;;;;;;4973187;28;20376;-58
2023/09/14 05:16:51;;;;;;;334.00;89.90;;;;;;;;;;4980360;28;20448;-58
2023/09/14 05:19:17;;;;;;;326.13;80.97;;;;;;;;;;4973290;28;20018;-58
2023/09/14 05:21:42;;;;;;;452.85;99.13;;;;;;;;;;4972544;28;20403;-59
2023/09/14 05:24:07;;;;;;;334.83;88.70;;;;;;;;;;4974277;28;20390;-58
2023/09/14 05:26:33;;;;;;;320.75;85.85;;;;;;;;;;4973864;28;20270;-57
2023/09/14 05:28:58;;;;;;;268.03;85.10;;;;;;;;;;4972482;28;20018;-58
2023/09/14 05:31:23;;;;;;;334.85;85.38;;;;;;;;;;4974162;28;20815;-59
2023/09/14 05:33:48;;;;;;;467.30;100.68;;;;;;;;;;4970506;28;20125;-58
2023/09/14 05:36:14;;;;;;;367.70;95.77;;;;;;;;;;4972989;28;20034;-59
2023/09/14 05:38:39;;;;;;;400.60;99.77;;;;;;;;;;4972192;28;20250;-58
2023/09/14 05:41:04;;;;;;;360.07;100.33;;;;;;;;;;4973559;28;20263;-58
2023/09/14 05:43:29;;;;;;;364.27;103.03;;;;;;;;;;4971783;28;20266;-59
2023/09/14 05:45:55;;;;;;;317.47;101.57;;;;;;;;;;4971624;28;20653;-59
2023/09/14 05:48:20;;;;;;;356.58;103.45;;;;;;;;;;4972673;28;20297;-59
2023/09/14 05:50:45;;;;;;;489.13;110.18;;;;;;;;;;4970563;28;20039;-60
2023/09/14 05:53:10;;;;;;;347.93;102.63;;;;;;;;;;4971294;28;20057;-60
2023/09/14 05:55:36;;;;;;;380.65;106.32;;;;;;;;;;4972881;28;20274;-58
2023/09/14 05:58:01;;;;;;;371.83;106.70;;;;;;;;;;4973013;28;20029;-60
2023/09/14 06:00:26;;;;;;;369.37;105.60;;;;;;;;;;4971761;28;20273;-60
2023/09/14 06:02:52;;;;;;;476.73;110.50;;;;;;;;;;4970576;28;20254;-59
2023/09/14 06:05:17;;;;;;;370.30;106.15;;;;;;;;;;4971711;28;20023;-59
2023/09/14 06:07:43;;;;;;;494.83;110.90;;;;;;;;;;4971698;28;20027;-58
2023/09/14 06:10:08;;;;;;;351.33;104.63;;;;;;;;;;4976069;28;20270;-60
2023/09/14 06:12:33;;;;;;;356.00;105.40;;;;;;;;;;4970676;28;20039;-59
2023/09/14 06:14:59;;;;;;;314.05;85.57;;;;;;;;;;4970966;28;20030;-60
2023/09/14 06:17:25;;;;;;;363.55;96.13;;;;;;;;;;4973230;28;20070;-59
2023/09/14 06:19:50;;;;;;;414.08;95.40;;;;;;;;;;4970795;28;20068;-58
2023/09/14 06:22:16;;;;;;;326.05;92.90;;;;;;;;;;4969375;28;20034;-60
2023/09/14 06:24:41;;;;;;;439.40;102.57;;;;;;;;;;4978596;28;20093;-59
2023/09/14 06:27:06;;;;;;;340.80;99.10;;;;;;;;;;4974617;28;20522;-59
2023/09/14 06:29:31;;;;;;;310.37;100.27;;;;;;;;;;4971897;28;20348;-59
2023/09/14 06:31:57;;;;;;;364.90;103.87;;;;;;;;;;4971565;28;20285;-58
2023/09/14 06:34:22;;;;;;;382.05;106.40;;;;;;;;;;4970589;28;20290;-59
2023/09/14 06:36:47;;;;;;;405.77;108.40;;;;;;;;;;4969868;28;20468;-59
2023/09/14 06:39:13;;;;;;;297.37;77.67;;;;;;;;;;4970534;28;20025;-58
2023/09/14 06:41:38;;;;;;;397.55;91.40;;;;;;;;;;4970559;28;21001;-59
2023/09/14 06:44:04;;;;;;;307.88;99.35;;;;;;;;;;4971435;28;20030;-59
2023/09/14 06:46:29;;;;;;;304.10;94.40;;;;;;;;;;4972399;28;20029;-59
2023/09/14 06:48:54;;;;;;;462.90;105.27;;;;;;;;;;4969727;28;20057;-60
2023/09/14 06:51:19;;;;;;;375.57;102.87;;;;;;;;;;4973728;28;20379;-59
2023/09/14 06:53:45;;;;;;;438.65;107.47;;;;;;;;;;4972402;28;20281;-60
2023/09/14 06:56:11;;;;;;;358.20;103.15;;;;;;;;;;4970139;28;20046;-58
2023/09/14 06:58:37;;;;;;;395.10;105.32;;;;;;;;;;4972500;28;20043;-59
2023/09/14 07:01:04;;;;;;;340.83;105.18;;;;;;;;;;4971259;28;20057;-60
2023/09/14 07:03:30;;;;;;;363.33;108.13;;;;;;;;;;4972261;28;20526;-59
2023/09/14 07:05:55;;;;;;;538.58;115.13;;;;;;;;;;4967522;28;20068;-58
2023/09/14 07:08:20;;;;;;;357.60;105.47;;;;;;;;;;4972720;28;20045;-60
2023/09/14 07:10:45;;;;;;;444.50;110.80;;;;;;;;;;4969039;28;20534;-60
2023/09/14 07:13:11;;;;;;;372.87;108.40;;;;;;;;;;4972875;28;20273;-60
2023/09/14 07:15:36;;;;;;;358.17;106.70;;;;;;;;;;4970522;28;20258;-59
2023/09/14 07:18:01;;;;;;;340.50;107.90;;;;;;;;;;4970439;28;20254;-59
2023/09/14 07:20:26;;;;;;;329.90;108.22;;;;;;;;;;4969852;28;20037;-60
2023/09/14 07:22:53;;;;;;;559.83;118.57;;;;;;;;;;4968737;28;20786;-58
2023/09/14 07:25:19;;;;;;;367.00;109.97;;;;;;;;;;4971090;28;20313;-61
2023/09/14 07:27:44;;;;;;;479.45;115.32;;;;;;;;;;4970443;28;20034;-59
2023/09/14 07:30:11;;;;;;;378.95;110.30;;;;;;;;;;4972527;28;20031;-59
2023/09/14 07:32:37;;;;;;;418.13;113.38;;;;;;;;;;4970642;28;20026;-59
2023/09/14 07:35:03;;;;;;;361.63;110.63;;;;;;;;;;4969528;28;20540;-59
2023/09/14 07:37:29;;;;;;;365.95;110.60;;;;;;;;;;4972708;28;20640;-58
2023/09/14 07:39:54;;;;;;;487.38;118.20;;;;;;;;;;4980513;28;20026;-59
2023/09/14 07:42:19;;;;;;;388.27;112.63;;;;;;;;;;4978959;28;20041;-60
2023/09/14 07:44:44;;;;;;;473.00;118.77;;;;;;;;;;4978271;28;20027;-59
2023/09/14 07:47:09;;;;;;;380.27;108.97;;;;;;;;;;4972642;28;20285;-58
2023/09/14 07:49:35;;;;;;;419.63;114.80;;;;;;;;;;4968608;28;20262;-59
2023/09/14 07:52:00;;;;;;;328.07;108.90;;;;;;;;;;4971391;28;20508;-59
2023/09/14 07:54:25;;;;;;;386.00;112.80;;;;;;;;;;4971350;28;20471;-59
2023/09/14 07:56:50;;;;;;;507.50;118.45;;;;;;;;;;4968902;28;20039;-59
2023/09/14 07:59:16;;;;;;;398.58;113.30;;;;;;;;;;4971456;28;20076;-59
2023/09/14 08:01:41;;;;;;;392.80;115.83;;;;;;;;;;4969576;28;20035;-58
2023/09/14 08:04:06;;;;;;;358.47;115.83;;;;;;;;;;4971153;28;20027;-59
2023/09/14 08:06:33;;;;;;;398.60;116.20;;;;;;;;;;4975220;28;20280;-59
2023/09/14 08:08:58;;;;;;;465.25;120.43;;;;;;;;;;4977896;28;20023;-59
2023/09/14 08:11:24;;;;;;;369.30;108.60;;;;;;;;;;4973230;28;20038;-59
2023/09/14 08:13:49;;;;;;;511.85;113.03;;;;;;;;;;4969427;28;20031;-60
2023/09/14 08:16:14;;;;;;;373.77;112.72;;;;;;;;;;4970058;28;20126;-59
2023/09/14 08:18:40;;;;;;;349.40;106.53;;;;;;;;;;4978607;28;20662;-59
2023/09/14 08:21:05;;;;;;;396.37;111.67;;;;;;;;;;4970717;28;20352;-59
2023/09/14 08:23:30;;;;;;;374.37;106.57;;;;;;;;;;4971381;28;20274;-59
2023/09/14 08:25:55;;;;;;;454.67;113.50;;;;;;;;;;4974996;28;20274;-61
2023/09/14 08:28:21;;;;;;;370.67;109.07;;;;;;;;;;4974566;28;20754;-59
2023/09/14 08:30:47;;;;;;;446.52;110.13;;;;;;;;;;4972328;28;20804;-61
2023/09/14 08:33:12;;;;;;;359.90;98.85;;;;;;;;;;4973714;28;20038;-59
2023/09/14 08:35:38;;;;;;;316.25;98.30;;;;;;;;;;4976423;28;20486;-59
2023/09/14 08:38:04;;;;;;;353.80;101.68;;;;;;;;;;4973079;28;20576;-60
2023/09/14 08:40:29;;;;;;;340.48;99.05;;;;;;;;;;4973864;28;20572;-59
2023/09/14 08:42:55;;;;;;;446.90;106.38;;;;;;;;;;4971847;28;20065;-60
2023/09/14 08:45:24;;;;;;;349.05;102.82;;;;;;;;;;4974251;28;20030;-58
2023/09/14 08:47:50;;;;;;;458.17;103.65;;;;;;;;;;4972319;28;20101;-59
2023/09/14 08:50:17;;;;;;;344.50;98.15;;;;;;;;;;4973904;28;20480;-59
2023/09/14 08:52:43;;;;;;;353.92;99.18;;;;;;;;;;4973642;28;20031;-59
2023/09/14 08:55:08;;;;;;;396.50;102.30;;;;;;;;;;4970135;28;20096;-58
2023/09/14 08:57:34;;;;;;;364.10;101.10;;;;;;;;;;4974882;28;20034;-59
2023/09/14 09:00:00;;;;;;;443.17;108.28;;;;;;;;;;4971853;28;20029;-60
2023/09/14 09:02:27;;;;;;;398.63;105.95;;;;;;;;;;4972956;28;20124;-60
2023/09/14 09:04:52;;;;;;;492.63;111.53;;;;;;;;;;4972910;28;20045;-60
2023/09/14 09:07:17;;;;;;;341.03;105.23;;;;;;;;;;4973292;28;20035;-58
2023/09/14 09:09:43;;;;;;;415.17;106.50;;;;;;;;;;4973113;28;20389;-59
2023/09/14 09:12:09;;;;;;;348.02;102.30;;;;;;;;;;4971499;28;20023;-58
2023/09/14 09:14:37;;;;;;;323.27;98.30;;;;;;;;;;4972234;28;20069;-59
2023/09/14 09:17:02;;;;;;;478.02;105.35;;;;;;;;;;4972448;28;20974;-59
2023/09/14 09:19:28;;;;;;;316.80;97.10;;;;;;;;;;4975340;28;20026;-59
2023/09/14 09:21:53;;;;;;;436.02;103.72;;;;;;;;;;4970928;28;20713;-59
2023/09/14 09:24:25;;;;;;;349.15;101.53;;;;;;;;;;4971946;28;20080;-59
2023/09/14 09:26:51;;;;;;;492.70;110.32;;;;;;;;;;4971655;28;20039;-60
2023/09/14 09:29:17;;;;;;;350.38;102.32;;;;;;;;;;4973923;28;20026;-60
2023/09/14 09:31:44;;;;;;;354.60;101.90;;;;;;;;;;4972139;28;20039;-59
2023/09/14 09:34:10;;;;;;;396.08;104.50;;;;;;;;;;4972438;28;20487;-59
2023/09/14 09:36:36;;;;;;;335.95;102.75;;;;;;;;;;4971649;28;20469;-59
2023/09/14 09:39:04;;;;;;;399.08;105.82;;;;;;;;;;4974128;28;20207;-60
2023/09/14 09:41:36;;;;;;;403.20;104.57;;;;;;;;;;4971200;28;20448;-60
2023/09/14 09:44:09;;;;;;;463.05;108.80;;;;;;;;;;4972975;28;20023;-60
2023/09/14 09:46:35;;;;;;;373.70;103.55;;;;;;;;;;4971667;28;20133;-60
2023/09/14 09:49:00;;;;;;;482.50;110.72;;;;;;;;;;4971229;28;20587;-59
2023/09/14 09:51:26;;;;;;;377.25;104.90;;;;;;;;;;4971742;28;20031;-59
2023/09/14 09:54:00;;;;;;;391.67;95.97;;;;;;;;;;4969314;28;20418;-60
2023/09/14 09:56:26;;;;;;;375.38;89.25;;;;;;;;;;4972482;28;20038;-60
2023/09/14 09:58:51;;;;;;;344.15;85.88;;;;;;;;;;4972143;28;20031;-58
2023/09/14 10:01:20;;;;;;;302.58;80.88;;;;;;;;;;4972906;28;20176;-59
2023/09/14 10:03:46;;;;;;;368.38;84.97;;;;;;;;;;4971875;28;20028;-59
2023/09/14 10:06:12;;;;;;;292.63;83.85;;;;;;;;;;4971360;28;20089;-60
2023/09/14 10:08:37;;;;;;;290.63;84.93;;;;;;;;;;4972343;28;20014;-59
2023/09/14 10:11:04;;;;;;;417.10;80.03;;;;;;;;;;4969445;28;20082;-59
2023/09/14 10:13:29;;;;;;;252.25;73.88;;;;;;;;;;4971621;28;20277;-59
2023/09/14 10:15:55;;;;;;;348.73;83.05;;;;;;;;;;4969769;28;20046;-60
2023/09/14 10:18:21;;;;;;;294.83;79.63;;;;;;;;;;4973475;28;20437;-58
2023/09/14 10:20:47;;;;;;;360.10;77.63;;;;;;;;;;4970523;28;20031;-58
2023/09/14 10:23:14;;;;;;;307.65;75.80;;;;;;;;;;4970245;28;20781;-59
2023/09/14 10:25:40;;;;;;;234.75;75.60;;;;;;;;;;4973357;28;20039;-59
2023/09/14 10:28:07;;;;;;;429.83;85.55;;;;;;;;;;4970512;28;20494;-59
2023/09/14 10:30:32;;;;;;;320.30;86.32;;;;;;;;;;4971018;28;20018;-58
2023/09/14 10:32:58;;;;;;;417.67;86.93;;;;;;;;;;4970628;28;20030;-59
2023/09/14 10:35:24;;;;;;;340.90;84.80;;;;;;;;;;4969486;28;20018;-58
2023/09/14 10:37:50;;;;;;;307.48;75.63;;;;;;;;;;4972135;28;20058;-58
2023/09/14 10:40:15;;;;;;;270.92;73.55;;;;;;;;;;4971615;28;20038;-59
2023/09/14 10:42:41;;;;;;;255.40;72.50;;;;;;;;;;4970956;28;20046;-58
2023/09/14 10:45:07;;;;;;;391.13;80.25;;;;;;;;;;4973098;28;20045;-59
2023/09/14 10:47:36;;;;;;;271.58;77.40;;;;;;;;;;4972951;28;20558;-59
2023/09/14 10:50:02;;;;;;;381.88;85.47;;;;;;;;;;4971970;28;20038;-58
2023/09/14 10:52:28;;;;;;;330.63;84.50;;;;;;;;;;4971644;28;20540;-58
2023/09/14 10:54:54;;;;;;;348.73;85.85;;;;;;;;;;4970635;28;20530;-60
2023/09/14 10:57:23;;;;;;;297.10;86.72;;;;;;;;;;4970766;28;20062;-58
2023/09/14 10:59:49;;;;;;;330.35;88.78;;;;;;;;;;4971341;28;20026;-59
2023/09/14 11:02:32;;;;;;;345.80;80.95;;;;;;;;;;4970424;28;20031;-58
2023/09/14 11:05:10;;;;;;;297.45;63.70;;;;;;;;;;4971014;28;20033;-58
2023/09/14 11:07:39;;;;;;;284.92;75.47;;;;;;;;;;4977832;28;20043;-58
2023/09/14 11:10:06;;;;;;;392.13;83.75;;;;;;;;;;4977965;28;20109;-59
2023/09/14 11:12:32;;;;;;;312.98;80.97;;;;;;;;;;4979012;28;20035;-59
2023/09/14 11:15:14;;;;;;;437.50;88.78;;;;;;;;;;4978058;28;20030;-57
2023/09/14 11:17:46;;;;;;;295.58;75.68;;;;;;;;;;4980040;28;20554;-57
2023/09/14 11:20:31;;;;;;;353.52;82.82;;;;;;;;;;4974205;28;20057;-58
2023/09/14 11:23:01;;;;;;;377.92;79.78;;;;;;;;;;4971543;28;20486;-60
2023/09/14 11:25:28;;;;;;;249.50;62.80;;;;;;;;;;4974373;28;20049;-59
2023/09/14 11:27:54;;;;;;;244.75;62.25;;;;;;;;;;4959113;28;20581;-59
2023/09/14 11:30:20;;;;;;;236.15;62.55;;;;;;;;;;4960283;28;20117;-57
2023/09/14 11:32:45;;;;;;;257.73;67.88;;;;;;;;;;4961456;28;20027;-59
2023/09/14 11:35:11;;;;;;;369.23;76.30;;;;;;;;;;4959488;28;20426;-58
2023/09/14 11:37:36;;;;;;;266.00;63.78;;;;;;;;;;4974476;28;20073;-57
2023/09/14 11:40:02;;;;;;;425.25;78.20;;;;;;;;;;4973969;28;20054;-58
2023/09/14 11:42:47;;;;;;;299.92;78.75;;;;;;;;;;4978630;28;20519;-59
2023/09/14 11:45:15;;;;;;;303.83;74.63;;;;;;;;;;4973682;28;21623;-58
2023/09/14 11:47:40;;;;;;;295.10;75.30;;;;;;;;;;4972118;28;20029;-59
2023/09/14 11:50:07;;;;;;;352.67;68.55;;;;;;;;;;4970838;28;20030;-59
2023/09/14 11:52:32;;;;;;;253.95;68.00;;;;;;;;;;4970526;28;20906;-59
2023/09/14 11:54:57;;;;;;;355.13;70.95;;;;;;;;;;4971483;28;20022;-59
2023/09/14 11:57:27;;;;;;;239.73;64.95;;;;;;;;;;4971388;28;20038;-59
2023/09/14 11:59:52;;;;;;;229.65;63.30;;;;;;;;;;4973161;28;20181;-58
2023/09/14 12:02:18;;;;;;;214.48;60.38;;;;;;;;;;4973828;28;20126;-60
2023/09/14 12:04:44;;;;;;;302.20;67.15;;;;;;;;;;4974244;28;20422;-58
2023/09/14 12:07:10;;;;;;;333.15;70.28;;;;;;;;;;4975514;28;20046;-60
2023/09/14 12:09:39;;;;;;;198.68;63.03;;;;;;;;;;4975422;28;20093;-58
2023/09/14 12:12:05;;;;;;;362.50;81.40;;;;;;;;;;4970930;28;20035;-59
2023/09/14 12:14:34;;;;;;;293.35;112.57;;;;;;;;;;4972208;28;20030;-59
2023/09/14 12:17:00;;;;;;;280.17;50.22;;;;;;;;;;4974250;28;20053;-59
2023/09/14 12:19:25;;;;;;;244.85;46.30;;;;;;;;;;4975046;28;20386;-59
2023/09/14 12:21:50;;;;;;;271.47;95.97;;;;;;;;;;4972318;28;20822;-59
2023/09/14 12:24:16;;;;;;;191.95;42.97;;;;;;;;;;4972641;28;20115;-60
2023/09/14 12:26:41;;;;;;;165.57;44.10;;;;;;;;;;4974995;28;20049;-58
2023/09/14 12:29:06;;;;;;;335.73;51.17;;;;;;;;;;4971656;28;20356;-58
2023/09/14 12:31:35;;;;;;;197.53;68.10;;;;;;;;;;4973578;28;20270;-59
2023/09/14 12:34:01;;;;;;;182.70;34.15;;;;;;;;;;4973583;28;20286;-59
2023/09/14 12:36:26;;;;;;;227.73;39.15;;;;;;;;;;4971650;28;20023;-59
2023/09/14 12:38:53;;;;;;;255.32;63.05;;;;;;;;;;4976354;28;20109;-58
2023/09/14 12:41:18;;;;;;;208.68;41.53;;;;;;;;;;4972178;28;20046;-58
2023/09/14 12:43:44;;;;;;;237.57;48.75;;;;;;;;;;4972817;28;20034;-58
2023/09/14 12:46:13;;;;;;;383.80;70.75;;;;;;;;;;4979126;28;20073;-58
2023/09/14 12:48:40;;;;;;;189.77;63.70;;;;;;;;;;4984358;28;20050;-58
2023/09/14 12:51:05;;;;;;;369.42;63.15;;;;;;;;;;4980390;28;20038;-58
2023/09/14 12:53:36;;;;;;;221.77;54.83;;;;;;;;;;4972427;28;20161;-58
2023/09/14 12:56:02;;;;;;;197.68;41.30;;;;;;;;;;4970875;28;20030;-58
2023/09/14 12:58:29;;;;;;;161.20;38.08;;;;;;;;;;4975215;28;20015;-58
2023/09/14 13:00:55;;;;;;;193.73;43.55;;;;;;;;;;4974124;28;20038;-59
2023/09/14 13:03:20;;;;;;;171.55;27.35;;;;;;;;;;4972945;28;20026;-58
2023/09/14 13:05:46;;;;;;;153.52;7.35;;;;;;;;;;4973226;28;20668;-59
2023/09/14 13:08:11;;;;;;;334.35;27.67;;;;;;;;;;4971843;28;20573;-59
2023/09/14 13:10:41;;;;;;;123.68;7.68;;;;;;;;;;4974262;28;20524;-58
2023/09/14 13:13:10;;;;;;;223.18;16.52;;;;;;;;;;4971930;28;20026;-59
2023/09/14 13:15:36;;;;;;;142.27;13.98;;;;;;;;;;4972708;28;20503;-59
2023/09/14 13:18:06;;;;;;;145.70;7.45;;;;;;;;;;4973704;28;20027;-57
2023/09/14 13:20:32;;;;;;;100.38;6.53;;;;;;;;;;4972751;28;20101;-58
2023/09/14 13:22:58;;;;;;;205.32;9.27;;;;;;;;;;4973767;28;20050;-58
2023/09/14 13:25:26;;;;;;;143.10;9.90;;;;;;;;;;4970246;28;20099;-58
2023/09/14 13:27:55;;;;;;;120.72;6.80;;;;;;;;;;4971667;28;20049;-58
2023/09/14 13:30:21;;;;;;;156.88;9.55;;;;;;;;;;4969435;28;20520;-59
2023/09/14 13:32:47;;;;;;;162.77;6.65;;;;;;;;;;4973356;28;20683;-58
2023/09/14 13:35:13;;;;;;;343.60;63.30;;;;;;;;;;4972065;28;20030;-59
2023/09/14 13:37:39;;;;;;;265.75;20.52;;;;;;;;;;4973046;28;20228;-59
2023/09/14 13:40:24;;;;;;;206.65;12.80;;;;;;;;;;4970564;28;20023;-60
2023/09/14 13:42:50;;;;;;;239.50;15.73;;;;;;;;;;4980122;28;20122;-59
2023/09/14 13:45:16;;;;;;;300.88;35.03;;;;;;;;;;4977889;28;20605;-59
2023/09/14 13:47:42;;;;;;;164.77;24.17;;;;;;;;;;4973976;28;20545;-59
2023/09/14 13:50:07;;;;;;;269.50;15.27;;;;;;;;;;4971500;28;20145;-58
2023/09/14 13:52:33;;;;;;;204.60;12.05;;;;;;;;;;4971946;28;20038;-59
2023/09/14 13:54:58;;;;;;;128.90;15.60;;;;;;;;;;4973254;28;20145;-58